sensor_id;sensor_type;location;lat;lon;timestamp;P1;durP1;ratioP1;P2;durP2;ratioP2
20928;SDS011;21895;47.072;15.132;2023-01-16T00:01:42;9.97;;;5.10;;
20928;SDS011;21895;47.072;15.132;2023-01-16T00:04:09;12.97;;;5.47;;
20928;SDS011;21895;47.072;15.132;2023-01-16T00:06:35;14.10;;;4.97;;
20928;SDS011;21895;47.072;15.132;2023-01-16T00:09:03;12.07;;;5.27;;
20928;SDS011;21895;47.072;15.132;2023-01-16T00:11:30;12.00;;;5.50;;
20928;SDS011;21895;47.072;15.132;2023-01-16T00:13:56;12.70;;;5.33;;
20928;SDS011;21895;47.072;15.132;2023-01-16T00:16:25;10.97;;;4.80;;
20928;SDS011;21895;47.072;15.132;2023-01-16T00:18:53;10.97;;;4.07;;
20928;SDS011;21895;47.072;15.132;2023-01-16T00:21:20;4.83;;;2.40;;
20928;SDS011;21895;47.072;15.132;2023-01-16T00:23:52;3.77;;;1.57;;
20928;SDS011;21895;47.072;15.132;2023-01-16T00:26:20;9.60;;;4.17;;
20928;SDS011;21895;47.072;15.132;2023-01-16T00:28:47;9.80;;;4.13;;
20928;SDS011;21895;47.072;15.132;2023-01-16T00:31:14;8.77;;;4.00;;
20928;SDS011;21895;47.072;15.132;2023-01-16T00:33:41;10.87;;;4.73;;
20928;SDS011;21895;47.072;15.132;2023-01-16T00:36:08;10.30;;;4.53;;
20928;SDS011;21895;47.072;15.132;2023-01-16T00:38:37;9.40;;;4.50;;
20928;SDS011;21895;47.072;15.132;2023-01-16T00:41:04;7.20;;;3.57;;
20928;SDS011;21895;47.072;15.132;2023-01-16T00:43:31;1.60;;;0.90;;
20928;SDS011;21895;47.072;15.132;2023-01-16T00:45:58;0.67;;;0.60;;
20928;SDS011;21895;47.072;15.132;2023-01-16T00:48:25;0.67;;;0.40;;
20928;SDS011;21895;47.072;15.132;2023-01-16T00:50:51;0.50;;;0.43;;
20928;SDS011;21895;47.072;15.132;2023-01-16T00:53:18;0.50;;;0.50;;
20928;SDS011;21895;47.072;15.132;2023-01-16T00:55:44;1.17;;;0.57;;
20928;SDS011;21895;47.072;15.132;2023-01-16T00:58:11;0.80;;;0.57;;
20928;SDS011;21895;47.072;15.132;2023-01-16T01:00:37;0.63;;;0.50;;
20928;SDS011;21895;47.072;15.132;2023-01-16T01:03:04;1.40;;;0.20;;
20928;SDS011;21895;47.072;15.132;2023-01-16T01:05:34;4.43;;;0.40;;
20928;SDS011;21895;47.072;15.132;2023-01-16T01:08:04;0.53;;;0.30;;
20928;SDS011;21895;47.072;15.132;2023-01-16T01:10:31;0.50;;;0.30;;
20928;SDS011;21895;47.072;15.132;2023-01-16T01:12:58;0.20;;;0.20;;
20928;SDS011;21895;47.072;15.132;2023-01-16T01:15:24;0.20;;;0.20;;
20928;SDS011;21895;47.072;15.132;2023-01-16T01:17:51;0.50;;;0.23;;
20928;SDS011;21895;47.072;15.132;2023-01-16T01:20:17;0.30;;;0.30;;
20928;SDS011;21895;47.072;15.132;2023-01-16T01:22:44;0.20;;;0.20;;
20928;SDS011;21895;47.072;15.132;2023-01-16T01:25:11;0.60;;;0.40;;
20928;SDS011;21895;47.072;15.132;2023-01-16T01:27:38;1.17;;;0.40;;
20928;SDS011;21895;47.072;15.132;2023-01-16T01:30:05;0.80;;;0.40;;
20928;SDS011;21895;47.072;15.132;2023-01-16T01:32:33;0.50;;;0.47;;
20928;SDS011;21895;47.072;15.132;2023-01-16T01:35:03;0.60;;;0.50;;
20928;SDS011;21895;47.072;15.132;2023-01-16T01:37:31;0.53;;;0.40;;
20928;SDS011;21895;47.072;15.132;2023-01-16T01:39:58;1.33;;;0.50;;
20928;SDS011;21895;47.072;15.132;2023-01-16T01:42:25;2.43;;;0.50;;
20928;SDS011;21895;47.072;15.132;2023-01-16T01:45:25;1.40;;;0.30;;
20928;SDS011;21895;47.072;15.132;2023-01-16T01:51:08;1.43;;;0.40;;
20928;SDS011;21895;47.072;15.132;2023-01-16T01:53:51;0.30;;;0.30;;
20928;SDS011;21895;47.072;15.132;2023-01-16T01:56:43;1.17;;;0.50;;
20928;SDS011;21895;47.072;15.132;2023-01-16T01:59:31;0.63;;;0.40;;
20928;SDS011;21895;47.072;15.132;2023-01-16T02:02:04;0.90;;;0.37;;
20928;SDS011;21895;47.072;15.132;2023-01-16T02:04:39;0.93;;;0.23;;
20928;SDS011;21895;47.072;15.132;2023-01-16T02:07:11;0.67;;;0.47;;
20928;SDS011;21895;47.072;15.132;2023-01-16T02:09:43;0.77;;;0.30;;
20928;SDS011;21895;47.072;15.132;2023-01-16T02:12:10;0.40;;;0.37;;
20928;SDS011;21895;47.072;15.132;2023-01-16T02:14:41;0.50;;;0.40;;
20928;SDS011;21895;47.072;15.132;2023-01-16T02:17:13;0.60;;;0.30;;
20928;SDS011;21895;47.072;15.132;2023-01-16T02:20:14;0.43;;;0.37;;
20928;SDS011;21895;47.072;15.132;2023-01-16T02:29:13;0.60;;;0.30;;
20928;SDS011;21895;47.072;15.132;2023-01-16T02:42:24;0.30;;;0.30;;
20928;SDS011;21895;47.072;15.132;2023-01-16T02:45:49;0.80;;;0.50;;
20928;SDS011;21895;47.072;15.132;2023-01-16T02:54:23;0.20;;;0.20;;
20928;SDS011;21895;47.072;15.132;2023-01-16T02:57:08;0.73;;;0.20;;
20928;SDS011;21895;47.072;15.132;2023-01-16T02:59:43;0.30;;;0.27;;
20928;SDS011;21895;47.072;15.132;2023-01-16T03:02:11;0.20;;;0.20;;
20928;SDS011;21895;47.072;15.132;2023-01-16T03:08:02;0.20;;;0.20;;
20928;SDS011;21895;47.072;15.132;2023-01-16T03:11:11;0.30;;;0.30;;
20928;SDS011;21895;47.072;15.132;2023-01-16T03:14:33;0.40;;;0.40;;
20928;SDS011;21895;47.072;15.132;2023-01-16T03:19:10;0.30;;;0.30;;
20928;SDS011;21895;47.072;15.132;2023-01-16T03:26:37;0.53;;;0.40;;
20928;SDS011;21895;47.072;15.132;2023-01-16T03:29:29;0.40;;;0.20;;
20928;SDS011;21895;47.072;15.132;2023-01-16T03:32:09;2.70;;;0.40;;
20928;SDS011;21895;47.072;15.132;2023-01-16T03:35:06;2.97;;;0.30;;
20928;SDS011;21895;47.072;15.132;2023-01-16T03:37:57;3.80;;;0.57;;
20928;SDS011;21895;47.072;15.132;2023-01-16T03:40:37;0.47;;;0.30;;
20928;SDS011;21895;47.072;15.132;2023-01-16T03:43:23;1.30;;;0.70;;
20928;SDS011;21895;47.072;15.132;2023-01-16T03:45:57;0.97;;;0.60;;
20928;SDS011;21895;47.072;15.132;2023-01-16T03:48:41;3.60;;;0.60;;
20928;SDS011;21895;47.072;15.132;2023-01-16T03:51:22;1.10;;;0.70;;
20928;SDS011;21895;47.072;15.132;2023-01-16T03:54:07;0.90;;;0.67;;
20928;SDS011;21895;47.072;15.132;2023-01-16T03:57:23;2.37;;;0.70;;
20928;SDS011;21895;47.072;15.132;2023-01-16T04:00:03;0.57;;;0.50;;
20928;SDS011;21895;47.072;15.132;2023-01-16T04:02:45;0.53;;;0.53;;
20928;SDS011;21895;47.072;15.132;2023-01-16T04:05:42;0.70;;;0.70;;
20928;SDS011;21895;47.072;15.132;2023-01-16T04:08:29;1.00;;;0.50;;
20928;SDS011;21895;47.072;15.132;2023-01-16T04:11:03;1.43;;;0.50;;
20928;SDS011;21895;47.072;15.132;2023-01-16T04:13:33;0.83;;;0.60;;
20928;SDS011;21895;47.072;15.132;2023-01-16T04:16:06;1.40;;;0.83;;
20928;SDS011;21895;47.072;15.132;2023-01-16T04:18:36;0.60;;;0.60;;
20928;SDS011;21895;47.072;15.132;2023-01-16T04:21:06;0.70;;;0.70;;
20928;SDS011;21895;47.072;15.132;2023-01-16T04:23:34;1.07;;;0.73;;
20928;SDS011;21895;47.072;15.132;2023-01-16T04:26:01;0.73;;;0.67;;
20928;SDS011;21895;47.072;15.132;2023-01-16T04:28:28;1.13;;;0.70;;
20928;SDS011;21895;47.072;15.132;2023-01-16T04:30:54;1.00;;;0.90;;
20928;SDS011;21895;47.072;15.132;2023-01-16T04:33:21;0.63;;;0.63;;
20928;SDS011;21895;47.072;15.132;2023-01-16T04:35:48;0.93;;;0.70;;
20928;SDS011;21895;47.072;15.132;2023-01-16T04:38:14;0.63;;;0.63;;
20928;SDS011;21895;47.072;15.132;2023-01-16T04:40:41;0.87;;;0.73;;
20928;SDS011;21895;47.072;15.132;2023-01-16T04:43:07;0.83;;;0.60;;
20928;SDS011;21895;47.072;15.132;2023-01-16T04:45:34;1.87;;;0.60;;
20928;SDS011;21895;47.072;15.132;2023-01-16T04:48:00;0.73;;;0.73;;
20928;SDS011;21895;47.072;15.132;2023-01-16T04:50:27;1.57;;;1.00;;
20928;SDS011;21895;47.072;15.132;2023-01-16T04:52:53;1.17;;;0.80;;
20928;SDS011;21895;47.072;15.132;2023-01-16T04:55:20;1.63;;;0.77;;
20928;SDS011;21895;47.072;15.132;2023-01-16T04:57:46;1.50;;;0.83;;
20928;SDS011;21895;47.072;15.132;2023-01-16T05:00:13;0.90;;;0.80;;
20928;SDS011;21895;47.072;15.132;2023-01-16T05:02:40;1.60;;;0.90;;
20928;SDS011;21895;47.072;15.132;2023-01-16T05:05:07;0.87;;;0.80;;
20928;SDS011;21895;47.072;15.132;2023-01-16T05:07:33;1.27;;;0.80;;
20928;SDS011;21895;47.072;15.132;2023-01-16T05:10:00;1.20;;;0.67;;
20928;SDS011;21895;47.072;15.132;2023-01-16T05:12:26;1.00;;;0.63;;
20928;SDS011;21895;47.072;15.132;2023-01-16T05:14:53;0.60;;;0.60;;
20928;SDS011;21895;47.072;15.132;2023-01-16T05:17:19;0.70;;;0.50;;
20928;SDS011;21895;47.072;15.132;2023-01-16T05:19:49;0.60;;;0.50;;
20928;SDS011;21895;47.072;15.132;2023-01-16T05:22:16;0.83;;;0.57;;
20928;SDS011;21895;47.072;15.132;2023-01-16T05:24:43;0.63;;;0.50;;
20928;SDS011;21895;47.072;15.132;2023-01-16T05:27:09;0.50;;;0.40;;
20928;SDS011;21895;47.072;15.132;2023-01-16T05:29:36;0.40;;;0.40;;
20928;SDS011;21895;47.072;15.132;2023-01-16T05:32:02;0.40;;;0.40;;
20928;SDS011;21895;47.072;15.132;2023-01-16T05:34:29;0.40;;;0.40;;
20928;SDS011;21895;47.072;15.132;2023-01-16T05:36:56;0.30;;;0.30;;
20928;SDS011;21895;47.072;15.132;2023-01-16T05:39:22;0.80;;;0.50;;
20928;SDS011;21895;47.072;15.132;2023-01-16T05:41:49;0.57;;;0.50;;
20928;SDS011;21895;47.072;15.132;2023-01-16T05:44:15;2.50;;;0.80;;
20928;SDS011;21895;47.072;15.132;2023-01-16T05:46:42;0.70;;;0.70;;
20928;SDS011;21895;47.072;15.132;2023-01-16T05:49:08;0.70;;;0.70;;
20928;SDS011;21895;47.072;15.132;2023-01-16T05:51:35;2.27;;;0.93;;
20928;SDS011;21895;47.072;15.132;2023-01-16T05:54:01;4.63;;;2.50;;
20928;SDS011;21895;47.072;15.132;2023-01-16T05:56:28;9.70;;;4.73;;
20928;SDS011;21895;47.072;15.132;2023-01-16T05:58:54;10.17;;;4.20;;
20928;SDS011;21895;47.072;15.132;2023-01-16T06:01:22;8.60;;;3.90;;
20928;SDS011;21895;47.072;15.132;2023-01-16T06:03:49;7.37;;;3.20;;
20928;SDS011;21895;47.072;15.132;2023-01-16T06:06:15;6.20;;;3.23;;
20928;SDS011;21895;47.072;15.132;2023-01-16T06:08:43;4.93;;;2.53;;
20928;SDS011;21895;47.072;15.132;2023-01-16T06:11:11;3.43;;;2.07;;
20928;SDS011;21895;47.072;15.132;2023-01-16T06:13:38;4.70;;;2.40;;
20928;SDS011;21895;47.072;15.132;2023-01-16T06:16:04;5.27;;;2.50;;
20928;SDS011;21895;47.072;15.132;2023-01-16T06:18:32;6.40;;;2.70;;
20928;SDS011;21895;47.072;15.132;2023-01-16T06:20:58;4.37;;;2.37;;
20928;SDS011;21895;47.072;15.132;2023-01-16T06:23:25;2.43;;;1.83;;
20928;SDS011;21895;47.072;15.132;2023-01-16T06:25:51;3.37;;;1.83;;
20928;SDS011;21895;47.072;15.132;2023-01-16T06:28:18;5.47;;;3.17;;
20928;SDS011;21895;47.072;15.132;2023-01-16T06:30:44;5.33;;;3.20;;
20928;SDS011;21895;47.072;15.132;2023-01-16T06:33:16;5.33;;;2.90;;
20928;SDS011;21895;47.072;15.132;2023-01-16T06:35:42;5.80;;;2.80;;
20928;SDS011;21895;47.072;15.132;2023-01-16T06:38:09;3.60;;;2.30;;
20928;SDS011;21895;47.072;15.132;2023-01-16T06:40:35;2.37;;;1.70;;
20928;SDS011;21895;47.072;15.132;2023-01-16T06:43:02;2.00;;;1.77;;
20928;SDS011;21895;47.072;15.132;2023-01-16T06:45:28;3.40;;;1.70;;
20928;SDS011;21895;47.072;15.132;2023-01-16T06:47:55;3.10;;;1.67;;
20928;SDS011;21895;47.072;15.132;2023-01-16T06:50:24;2.17;;;1.40;;
20928;SDS011;21895;47.072;15.132;2023-01-16T06:52:51;3.60;;;2.00;;
20928;SDS011;21895;47.072;15.132;2023-01-16T06:55:17;6.40;;;3.00;;
20928;SDS011;21895;47.072;15.132;2023-01-16T06:57:44;18.23;;;7.67;;
20928;SDS011;21895;47.072;15.132;2023-01-16T07:00:11;30.70;;;12.47;;
20928;SDS011;21895;47.072;15.132;2023-01-16T07:02:39;51.17;;;17.67;;
20928;SDS011;21895;47.072;15.132;2023-01-16T07:05:06;22.50;;;8.53;;
20928;SDS011;21895;47.072;15.132;2023-01-16T07:07:36;4.57;;;2.23;;
20928;SDS011;21895;47.072;15.132;2023-01-16T07:10:03;2.43;;;1.40;;
20928;SDS011;21895;47.072;15.132;2023-01-16T07:12:30;1.90;;;1.03;;
20928;SDS011;21895;47.072;15.132;2023-01-16T07:14:56;2.17;;;1.10;;
20928;SDS011;21895;47.072;15.132;2023-01-16T07:17:41;0.80;;;0.80;;
20928;SDS011;21895;47.072;15.132;2023-01-16T07:20:26;1.07;;;0.90;;
20928;SDS011;21895;47.072;15.132;2023-01-16T07:23:18;2.43;;;1.50;;
20928;SDS011;21895;47.072;15.132;2023-01-16T07:25:54;2.80;;;1.50;;
20928;SDS011;21895;47.072;15.132;2023-01-16T07:28:25;7.63;;;3.47;;
20928;SDS011;21895;47.072;15.132;2023-01-16T07:30:53;42.13;;;14.67;;
20928;SDS011;21895;47.072;15.132;2023-01-16T07:33:21;49.40;;;17.30;;
20928;SDS011;21895;47.072;15.132;2023-01-16T07:35:47;50.10;;;17.43;;
20928;SDS011;21895;47.072;15.132;2023-01-16T07:38:14;41.70;;;14.77;;
20928;SDS011;21895;47.072;15.132;2023-01-16T07:40:40;33.10;;;13.67;;
20928;SDS011;21895;47.072;15.132;2023-01-16T07:43:08;24.17;;;8.73;;
20928;SDS011;21895;47.072;15.132;2023-01-16T07:45:34;10.77;;;4.37;;
20928;SDS011;21895;47.072;15.132;2023-01-16T07:48:01;3.67;;;2.30;;
20928;SDS011;21895;47.072;15.132;2023-01-16T07:50:28;2.90;;;1.47;;
20928;SDS011;21895;47.072;15.132;2023-01-16T07:52:55;1.80;;;1.20;;
20928;SDS011;21895;47.072;15.132;2023-01-16T07:55:21;2.60;;;1.60;;
20928;SDS011;21895;47.072;15.132;2023-01-16T07:57:49;3.23;;;1.70;;
20928;SDS011;21895;47.072;15.132;2023-01-16T08:00:15;1.90;;;1.33;;
20928;SDS011;21895;47.072;15.132;2023-01-16T08:02:42;1.17;;;0.83;;
20928;SDS011;21895;47.072;15.132;2023-01-16T08:05:09;1.00;;;0.80;;
20928;SDS011;21895;47.072;15.132;2023-01-16T08:07:36;1.33;;;0.87;;
20928;SDS011;21895;47.072;15.132;2023-01-16T08:10:03;1.30;;;0.83;;
20928;SDS011;21895;47.072;15.132;2023-01-16T08:12:31;0.60;;;0.60;;
20928;SDS011;21895;47.072;15.132;2023-01-16T08:14:57;1.63;;;1.00;;
20928;SDS011;21895;47.072;15.132;2023-01-16T08:17:24;1.17;;;0.80;;
20928;SDS011;21895;47.072;15.132;2023-01-16T08:19:50;2.00;;;1.03;;
20928;SDS011;21895;47.072;15.132;2023-01-16T08:22:17;1.47;;;1.03;;
20928;SDS011;21895;47.072;15.132;2023-01-16T08:24:43;2.13;;;1.40;;
20928;SDS011;21895;47.072;15.132;2023-01-16T08:27:10;1.97;;;1.20;;
20928;SDS011;21895;47.072;15.132;2023-01-16T08:29:39;2.30;;;1.40;;
20928;SDS011;21895;47.072;15.132;2023-01-16T08:32:05;3.20;;;1.40;;
20928;SDS011;21895;47.072;15.132;2023-01-16T08:34:32;1.83;;;1.10;;
20928;SDS011;21895;47.072;15.132;2023-01-16T08:36:58;1.37;;;1.10;;
20928;SDS011;21895;47.072;15.132;2023-01-16T08:39:27;1.20;;;1.00;;
20928;SDS011;21895;47.072;15.132;2023-01-16T08:41:54;2.03;;;1.20;;
20928;SDS011;21895;47.072;15.132;2023-01-16T08:44:38;2.53;;;1.30;;
20928;SDS011;21895;47.072;15.132;2023-01-16T08:47:23;5.50;;;2.50;;
20928;SDS011;21895;47.072;15.132;2023-01-16T08:53:03;7.20;;;3.50;;
20928;SDS011;21895;47.072;15.132;2023-01-16T08:55:31;14.03;;;5.53;;
20928;SDS011;21895;47.072;15.132;2023-01-16T08:57:58;20.33;;;7.73;;
20928;SDS011;21895;47.072;15.132;2023-01-16T09:00:25;25.47;;;9.90;;
20928;SDS011;21895;47.072;15.132;2023-01-16T09:02:54;34.53;;;12.00;;
20928;SDS011;21895;47.072;15.132;2023-01-16T09:05:23;25.80;;;9.47;;
20928;SDS011;21895;47.072;15.132;2023-01-16T09:07:51;29.50;;;10.20;;
20928;SDS011;21895;47.072;15.132;2023-01-16T09:10:17;15.53;;;7.37;;
20928;SDS011;21895;47.072;15.132;2023-01-16T09:12:44;21.07;;;8.83;;
20928;SDS011;21895;47.072;15.132;2023-01-16T09:15:29;25.10;;;10.47;;
20928;SDS011;21895;47.072;15.132;2023-01-16T09:17:55;33.67;;;11.60;;
20928;SDS011;21895;47.072;15.132;2023-01-16T09:20:22;26.20;;;11.73;;
20928;SDS011;21895;47.072;15.132;2023-01-16T09:22:48;30.40;;;12.87;;
20928;SDS011;21895;47.072;15.132;2023-01-16T09:25:22;31.57;;;12.77;;
20928;SDS011;21895;47.072;15.132;2023-01-16T09:27:48;35.03;;;13.97;;
20928;SDS011;21895;47.072;15.132;2023-01-16T09:30:15;37.87;;;15.20;;
20928;SDS011;21895;47.072;15.132;2023-01-16T09:32:43;33.17;;;13.93;;
20928;SDS011;21895;47.072;15.132;2023-01-16T09:35:14;34.73;;;13.60;;
20928;SDS011;21895;47.072;15.132;2023-01-16T09:37:44;31.93;;;12.93;;
20928;SDS011;21895;47.072;15.132;2023-01-16T09:40:12;26.60;;;10.47;;
20928;SDS011;21895;47.072;15.132;2023-01-16T09:42:52;26.17;;;10.77;;
20928;SDS011;21895;47.072;15.132;2023-01-16T09:46:03;25.47;;;10.60;;
20928;SDS011;21895;47.072;15.132;2023-01-16T09:48:54;20.43;;;9.80;;
20928;SDS011;21895;47.072;15.132;2023-01-16T09:51:33;29.00;;;11.90;;
20928;SDS011;21895;47.072;15.132;2023-01-16T09:54:16;43.93;;;17.37;;
20928;SDS011;21895;47.072;15.132;2023-01-16T09:57:09;46.27;;;16.47;;
20928;SDS011;21895;47.072;15.132;2023-01-16T09:59:58;44.50;;;16.67;;
20928;SDS011;21895;47.072;15.132;2023-01-16T10:02:31;44.73;;;17.03;;
20928;SDS011;21895;47.072;15.132;2023-01-16T10:05:00;43.93;;;17.10;;
20928;SDS011;21895;47.072;15.132;2023-01-16T10:07:32;38.47;;;16.60;;
20928;SDS011;21895;47.072;15.132;2023-01-16T10:10:28;32.20;;;14.17;;
20928;SDS011;21895;47.072;15.132;2023-01-16T10:13:49;31.33;;;12.40;;
20928;SDS011;21895;47.072;15.132;2023-01-16T10:17:38;13.20;;;6.17;;
20928;SDS011;21895;47.072;15.132;2023-01-16T10:26:53;15.67;;;5.20;;
20928;SDS011;21895;47.072;15.132;2023-01-16T10:32:53;7.10;;;3.57;;
20928;SDS011;21895;47.072;15.132;2023-01-16T10:37:10;9.30;;;4.70;;
20928;SDS011;21895;47.072;15.132;2023-01-16T10:39:37;7.97;;;4.03;;
20928;SDS011;21895;47.072;15.132;2023-01-16T10:42:14;15.50;;;7.33;;
20928;SDS011;21895;47.072;15.132;2023-01-16T10:48:15;29.97;;;11.03;;
20928;SDS011;21895;47.072;15.132;2023-01-16T10:51:01;32.73;;;13.80;;
20928;SDS011;21895;47.072;15.132;2023-01-16T10:53:32;37.23;;;17.27;;
20928;SDS011;21895;47.072;15.132;2023-01-16T10:56:03;35.47;;;15.63;;
20928;SDS011;21895;47.072;15.132;2023-01-16T10:58:31;29.03;;;13.77;;
20928;SDS011;21895;47.072;15.132;2023-01-16T11:01:20;29.67;;;13.13;;
20928;SDS011;21895;47.072;15.132;2023-01-16T11:03:58;31.03;;;13.47;;
20928;SDS011;21895;47.072;15.132;2023-01-16T11:06:27;37.90;;;16.10;;
20928;SDS011;21895;47.072;15.132;2023-01-16T11:09:02;34.50;;;15.17;;
20928;SDS011;21895;47.072;15.132;2023-01-16T11:11:43;24.67;;;11.10;;
20928;SDS011;21895;47.072;15.132;2023-01-16T11:14:29;25.40;;;10.70;;
20928;SDS011;21895;47.072;15.132;2023-01-16T11:17:37;21.17;;;9.83;;
20928;SDS011;21895;47.072;15.132;2023-01-16T11:20:29;20.23;;;9.60;;
20928;SDS011;21895;47.072;15.132;2023-01-16T11:23:03;20.53;;;9.83;;
20928;SDS011;21895;47.072;15.132;2023-01-16T11:25:41;23.53;;;9.93;;
20928;SDS011;21895;47.072;15.132;2023-01-16T11:28:10;23.30;;;9.00;;
20928;SDS011;21895;47.072;15.132;2023-01-16T11:30:48;24.80;;;9.23;;
20928;SDS011;21895;47.072;15.132;2023-01-16T11:33:22;14.90;;;7.03;;
20928;SDS011;21895;47.072;15.132;2023-01-16T11:35:58;13.10;;;5.70;;
20928;SDS011;21895;47.072;15.132;2023-01-16T11:38:29;14.60;;;5.80;;
20928;SDS011;21895;47.072;15.132;2023-01-16T11:41:00;12.30;;;5.80;;
20928;SDS011;21895;47.072;15.132;2023-01-16T11:43:31;11.80;;;5.23;;
20928;SDS011;21895;47.072;15.132;2023-01-16T11:46:34;48.27;;;17.97;;
20928;SDS011;21895;47.072;15.132;2023-01-16T11:49:14;34.63;;;13.60;;
20928;SDS011;21895;47.072;15.132;2023-01-16T11:51:44;13.30;;;5.70;;
20928;SDS011;21895;47.072;15.132;2023-01-16T11:54:17;6.27;;;3.43;;
20928;SDS011;21895;47.072;15.132;2023-01-16T11:56:55;6.67;;;3.47;;
20928;SDS011;21895;47.072;15.132;2023-01-16T12:03:53;10.17;;;4.20;;
20928;SDS011;21895;47.072;15.132;2023-01-16T12:14:55;9.73;;;3.70;;
20928;SDS011;21895;47.072;15.132;2023-01-16T12:29:40;9.27;;;3.83;;
20928;SDS011;21895;47.072;15.132;2023-01-16T12:35:04;7.57;;;4.10;;
20928;SDS011;21895;47.072;15.132;2023-01-16T12:38:07;10.97;;;4.40;;
20928;SDS011;21895;47.072;15.132;2023-01-16T12:41:09;10.63;;;5.03;;
20928;SDS011;21895;47.072;15.132;2023-01-16T12:44:59;9.20;;;4.70;;
20928;SDS011;21895;47.072;15.132;2023-01-16T13:01:00;8.40;;;3.80;;
20928;SDS011;21895;47.072;15.132;2023-01-16T13:03:53;7.70;;;3.43;;
20928;SDS011;21895;47.072;15.132;2023-01-16T13:06:55;11.27;;;4.03;;
20928;SDS011;21895;47.072;15.132;2023-01-16T13:09:32;9.30;;;3.50;;
20928;SDS011;21895;47.072;15.132;2023-01-16T13:12:23;8.60;;;4.17;;
20928;SDS011;21895;47.072;15.132;2023-01-16T13:15:22;20.63;;;6.50;;
20928;SDS011;21895;47.072;15.132;2023-01-16T13:18:42;11.53;;;5.43;;
20928;SDS011;21895;47.072;15.132;2023-01-16T13:22:05;13.03;;;5.07;;
20928;SDS011;21895;47.072;15.132;2023-01-16T13:25:05;13.97;;;4.77;;
20928;SDS011;21895;47.072;15.132;2023-01-16T13:27:48;10.43;;;4.50;;
20928;SDS011;21895;47.072;15.132;2023-01-16T13:30:25;9.13;;;4.00;;
20928;SDS011;21895;47.072;15.132;2023-01-16T13:32:53;8.23;;;4.47;;
20928;SDS011;21895;47.072;15.132;2023-01-16T13:35:34;10.77;;;5.23;;
20928;SDS011;21895;47.072;15.132;2023-01-16T13:42:28;10.30;;;4.77;;
20928;SDS011;21895;47.072;15.132;2023-01-16T13:44:59;10.43;;;5.10;;
20928;SDS011;21895;47.072;15.132;2023-01-16T13:47:51;16.47;;;5.77;;
20928;SDS011;21895;47.072;15.132;2023-01-16T13:50:24;15.53;;;5.90;;
20928;SDS011;21895;47.072;15.132;2023-01-16T13:53:02;15.47;;;6.13;;
20928;SDS011;21895;47.072;15.132;2023-01-16T13:55:35;13.00;;;5.83;;
20928;SDS011;21895;47.072;15.132;2023-01-16T13:58:09;12.90;;;5.70;;
20928;SDS011;21895;47.072;15.132;2023-01-16T14:00:58;12.63;;;5.73;;
20928;SDS011;21895;47.072;15.132;2023-01-16T14:03:33;11.57;;;5.83;;
20928;SDS011;21895;47.072;15.132;2023-01-16T14:09:20;7.27;;;4.10;;
20928;SDS011;21895;47.072;15.132;2023-01-16T14:21:44;13.07;;;5.40;;
20928;SDS011;21895;47.072;15.132;2023-01-16T14:24:41;10.73;;;5.77;;
20928;SDS011;21895;47.072;15.132;2023-01-16T14:27:13;33.07;;;12.53;;
20928;SDS011;21895;47.072;15.132;2023-01-16T14:32:53;33.90;;;12.57;;
20928;SDS011;21895;47.072;15.132;2023-01-16T14:35:25;29.63;;;11.47;;
20928;SDS011;21895;47.072;15.132;2023-01-16T14:37:58;21.47;;;10.03;;
20928;SDS011;21895;47.072;15.132;2023-01-16T14:40:45;22.10;;;8.70;;
20928;SDS011;21895;47.072;15.132;2023-01-16T14:44:27;17.43;;;6.27;;
20928;SDS011;21895;47.072;15.132;2023-01-16T14:50:17;12.10;;;6.07;;
20928;SDS011;21895;47.072;15.132;2023-01-16T14:53:13;16.37;;;7.17;;
20928;SDS011;21895;47.072;15.132;2023-01-16T14:56:10;14.27;;;6.00;;
20928;SDS011;21895;47.072;15.132;2023-01-16T14:58:54;18.67;;;7.33;;
20928;SDS011;21895;47.072;15.132;2023-01-16T15:01:40;19.77;;;8.20;;
20928;SDS011;21895;47.072;15.132;2023-01-16T15:05:17;17.27;;;7.97;;
20928;SDS011;21895;47.072;15.132;2023-01-16T15:08:16;23.70;;;8.47;;
20928;SDS011;21895;47.072;15.132;2023-01-16T15:11:00;18.93;;;7.80;;
20928;SDS011;21895;47.072;15.132;2023-01-16T15:14:29;14.90;;;6.73;;
20928;SDS011;21895;47.072;15.132;2023-01-16T15:16:59;14.70;;;7.00;;
20928;SDS011;21895;47.072;15.132;2023-01-16T15:20:01;13.27;;;5.87;;
20928;SDS011;21895;47.072;15.132;2023-01-16T15:23:23;12.90;;;5.90;;
20928;SDS011;21895;47.072;15.132;2023-01-16T15:26:29;11.57;;;4.77;;
20928;SDS011;21895;47.072;15.132;2023-01-16T15:29:45;11.97;;;5.20;;
20928;SDS011;21895;47.072;15.132;2023-01-16T15:37:14;7.30;;;3.37;;
20928;SDS011;21895;47.072;15.132;2023-01-16T15:39:49;7.10;;;3.43;;
20928;SDS011;21895;47.072;15.132;2023-01-16T15:42:24;7.17;;;3.63;;
20928;SDS011;21895;47.072;15.132;2023-01-16T15:48:08;7.40;;;3.33;;
20928;SDS011;21895;47.072;15.132;2023-01-16T15:51:37;5.73;;;3.20;;
20928;SDS011;21895;47.072;15.132;2023-01-16T15:54:04;8.03;;;3.37;;
20928;SDS011;21895;47.072;15.132;2023-01-16T15:56:47;9.23;;;3.90;;
20928;SDS011;21895;47.072;15.132;2023-01-16T15:59:28;12.07;;;4.57;;
20928;SDS011;21895;47.072;15.132;2023-01-16T16:04:59;8.33;;;3.80;;
20928;SDS011;21895;47.072;15.132;2023-01-16T16:07:28;8.33;;;3.57;;
20928;SDS011;21895;47.072;15.132;2023-01-16T16:09:57;8.93;;;4.00;;
20928;SDS011;21895;47.072;15.132;2023-01-16T16:12:26;8.90;;;3.80;;
20928;SDS011;21895;47.072;15.132;2023-01-16T16:18:12;11.73;;;4.63;;
20928;SDS011;21895;47.072;15.132;2023-01-16T16:20:46;9.30;;;4.73;;
20928;SDS011;21895;47.072;15.132;2023-01-16T16:23:17;10.80;;;4.57;;
20928;SDS011;21895;47.072;15.132;2023-01-16T16:25:49;10.07;;;4.60;;
20928;SDS011;21895;47.072;15.132;2023-01-16T16:28:34;12.97;;;5.40;;
20928;SDS011;21895;47.072;15.132;2023-01-16T16:31:05;10.70;;;4.37;;
20928;SDS011;21895;47.072;15.132;2023-01-16T16:34:21;9.90;;;4.67;;
20928;SDS011;21895;47.072;15.132;2023-01-16T16:36:51;11.90;;;5.07;;
20928;SDS011;21895;47.072;15.132;2023-01-16T16:39:27;12.63;;;6.03;;
20928;SDS011;21895;47.072;15.132;2023-01-16T16:51:31;12.43;;;5.53;;
20928;SDS011;21895;47.072;15.132;2023-01-16T16:54:05;12.43;;;5.80;;
20928;SDS011;21895;47.072;15.132;2023-01-16T16:56:42;12.37;;;4.83;;
20928;SDS011;21895;47.072;15.132;2023-01-16T16:59:15;11.80;;;5.13;;
20928;SDS011;21895;47.072;15.132;2023-01-16T17:01:52;14.80;;;5.07;;
20928;SDS011;21895;47.072;15.132;2023-01-16T17:04:26;11.70;;;5.13;;
20928;SDS011;21895;47.072;15.132;2023-01-16T17:06:52;12.57;;;5.53;;
20928;SDS011;21895;47.072;15.132;2023-01-16T17:09:19;13.60;;;5.23;;
20928;SDS011;21895;47.072;15.132;2023-01-16T17:11:45;12.73;;;5.37;;
20928;SDS011;21895;47.072;15.132;2023-01-16T17:14:12;16.97;;;5.83;;
20928;SDS011;21895;47.072;15.132;2023-01-16T17:16:38;12.20;;;5.90;;
20928;SDS011;21895;47.072;15.132;2023-01-16T17:19:15;17.63;;;6.80;;
20928;SDS011;21895;47.072;15.132;2023-01-16T17:21:47;16.83;;;7.00;;
20928;SDS011;21895;47.072;15.132;2023-01-16T17:24:14;16.30;;;6.83;;
20928;SDS011;21895;47.072;15.132;2023-01-16T17:26:43;12.40;;;5.63;;
20928;SDS011;21895;47.072;15.132;2023-01-16T17:29:09;15.60;;;6.13;;
20928;SDS011;21895;47.072;15.132;2023-01-16T17:31:37;11.33;;;5.20;;
20928;SDS011;21895;47.072;15.132;2023-01-16T17:34:11;14.80;;;6.20;;
20928;SDS011;21895;47.072;15.132;2023-01-16T17:36:43;14.37;;;6.37;;
20928;SDS011;21895;47.072;15.132;2023-01-16T17:39:12;15.77;;;6.43;;
20928;SDS011;21895;47.072;15.132;2023-01-16T17:41:38;15.83;;;6.03;;